sensor_id;sensor_type;location;lat;lon;timestamp;P1;durP1;ratioP1;P2;durP2;ratioP2
17595;SDS011;8916;47.086;15.920;2024-03-29T00:00:07;0.73;;;0.60;;
17595;SDS011;8916;47.086;15.920;2024-03-29T00:02:38;1.10;;;0.50;;
17595;SDS011;8916;47.086;15.920;2024-03-29T00:05:06;0.75;;;0.60;;
17595;SDS011;8916;47.086;15.920;2024-03-29T00:07:34;0.70;;;0.40;;
17595;SDS011;8916;47.086;15.920;2024-03-29T00:10:01;1.80;;;0.82;;
17595;SDS011;8916;47.086;15.920;2024-03-29T00:12:30;1.25;;;0.63;;
17595;SDS011;8916;47.086;15.920;2024-03-29T00:14:58;1.35;;;0.60;;
17595;SDS011;8916;47.086;15.920;2024-03-29T00:17:25;1.25;;;0.70;;
17595;SDS011;8916;47.086;15.920;2024-03-29T00:19:52;1.25;;;0.50;;
17595;SDS011;8916;47.086;15.920;2024-03-29T00:22:20;0.43;;;0.43;;
17595;SDS011;8916;47.086;15.920;2024-03-29T00:24:47;2.58;;;0.77;;
17595;SDS011;8916;47.086;15.920;2024-03-29T00:27:14;1.73;;;0.70;;
17595;SDS011;8916;47.086;15.920;2024-03-29T00:29:43;2.55;;;1.05;;
17595;SDS011;8916;47.086;15.920;2024-03-29T00:32:10;0.68;;;0.57;;
17595;SDS011;8916;47.086;15.920;2024-03-29T00:34:37;1.55;;;0.45;;
17595;SDS011;8916;47.086;15.920;2024-03-29T00:37:05;0.52;;;0.43;;
17595;SDS011;8916;47.086;15.920;2024-03-29T00:39:32;0.68;;;0.50;;
17595;SDS011;8916;47.086;15.920;2024-03-29T00:41:59;0.60;;;0.60;;
17595;SDS011;8916;47.086;15.920;2024-03-29T00:44:27;0.65;;;0.55;;
17595;SDS011;8916;47.086;15.920;2024-03-29T00:46:55;0.98;;;0.50;;
17595;SDS011;8916;47.086;15.920;2024-03-29T00:49:23;0.43;;;0.43;;
17595;SDS011;8916;47.086;15.920;2024-03-29T00:51:50;1.15;;;0.73;;
17595;SDS011;8916;47.086;15.920;2024-03-29T00:54:17;1.13;;;0.60;;
17595;SDS011;8916;47.086;15.920;2024-03-29T00:56:45;0.90;;;0.70;;
17595;SDS011;8916;47.086;15.920;2024-03-29T00:59:12;3.15;;;1.50;;
17595;SDS011;8916;47.086;15.920;2024-03-29T01:01:39;0.60;;;0.60;;
17595;SDS011;8916;47.086;15.920;2024-03-29T01:04:08;1.08;;;0.60;;
17595;SDS011;8916;47.086;15.920;2024-03-29T01:06:35;1.20;;;0.60;;
17595;SDS011;8916;47.086;15.920;2024-03-29T01:09:03;0.60;;;0.60;;
17595;SDS011;8916;47.086;15.920;2024-03-29T01:11:31;1.35;;;0.70;;
17595;SDS011;8916;47.086;15.920;2024-03-29T01:13:58;1.98;;;1.00;;
17595;SDS011;8916;47.086;15.920;2024-03-29T01:16:25;0.65;;;0.60;;
17595;SDS011;8916;47.086;15.920;2024-03-29T01:18:53;2.78;;;0.75;;
17595;SDS011;8916;47.086;15.920;2024-03-29T01:21:21;1.33;;;0.55;;
17595;SDS011;8916;47.086;15.920;2024-03-29T01:23:49;2.40;;;0.90;;
17595;SDS011;8916;47.086;15.920;2024-03-29T01:26:16;7.05;;;1.90;;
17595;SDS011;8916;47.086;15.920;2024-03-29T01:28:43;1.35;;;0.82;;
17595;SDS011;8916;47.086;15.920;2024-03-29T01:31:11;0.90;;;0.60;;
17595;SDS011;8916;47.086;15.920;2024-03-29T01:33:38;3.88;;;0.88;;
17595;SDS011;8916;47.086;15.920;2024-03-29T01:36:06;1.10;;;0.30;;
17595;SDS011;8916;47.086;15.920;2024-03-29T01:38:35;1.80;;;0.70;;
17595;SDS011;8916;47.086;15.920;2024-03-29T01:41:02;2.15;;;0.90;;
17595;SDS011;8916;47.086;15.920;2024-03-29T01:43:30;0.77;;;0.52;;
17595;SDS011;8916;47.086;15.920;2024-03-29T01:45:58;1.52;;;0.90;;
17595;SDS011;8916;47.086;15.920;2024-03-29T01:48:27;0.95;;;0.77;;
17595;SDS011;8916;47.086;15.920;2024-03-29T01:50:55;1.58;;;0.77;;
17595;SDS011;8916;47.086;15.920;2024-03-29T01:53:25;1.38;;;0.68;;
17595;SDS011;8916;47.086;15.920;2024-03-29T01:55:55;0.95;;;0.82;;
17595;SDS011;8916;47.086;15.920;2024-03-29T01:58:25;0.75;;;0.50;;
17595;SDS011;8916;47.086;15.920;2024-03-29T02:00:54;1.50;;;0.88;;
17595;SDS011;8916;47.086;15.920;2024-03-29T02:03:25;1.30;;;0.70;;
17595;SDS011;8916;47.086;15.920;2024-03-29T02:05:54;1.00;;;0.65;;
17595;SDS011;8916;47.086;15.920;2024-03-29T02:08:24;2.53;;;1.00;;
17595;SDS011;8916;47.086;15.920;2024-03-29T02:10:52;2.45;;;0.80;;
17595;SDS011;8916;47.086;15.920;2024-03-29T02:13:22;1.40;;;0.98;;
17595;SDS011;8916;47.086;15.920;2024-03-29T02:15:50;3.30;;;1.40;;
17595;SDS011;8916;47.086;15.920;2024-03-29T02:18:19;1.65;;;0.85;;
17595;SDS011;8916;47.086;15.920;2024-03-29T02:20:47;2.05;;;1.42;;
17595;SDS011;8916;47.086;15.920;2024-03-29T02:23:16;2.17;;;1.52;;
17595;SDS011;8916;47.086;15.920;2024-03-29T02:25:55;1.40;;;1.02;;
17595;SDS011;8916;47.086;15.920;2024-03-29T02:28:23;1.63;;;0.85;;
17595;SDS011;8916;47.086;15.920;2024-03-29T02:30:53;0.73;;;0.70;;
17595;SDS011;8916;47.086;15.920;2024-03-29T02:33:21;2.58;;;0.60;;
17595;SDS011;8916;47.086;15.920;2024-03-29T02:35:50;1.27;;;0.70;;
17595;SDS011;8916;47.086;15.920;2024-03-29T02:38:18;0.65;;;0.65;;
17595;SDS011;8916;47.086;15.920;2024-03-29T02:40:46;0.93;;;0.60;;
17595;SDS011;8916;47.086;15.920;2024-03-29T02:43:16;1.70;;;0.93;;
17595;SDS011;8916;47.086;15.920;2024-03-29T02:45:44;1.20;;;0.82;;
17595;SDS011;8916;47.086;15.920;2024-03-29T02:48:13;1.27;;;0.70;;
17595;SDS011;8916;47.086;15.920;2024-03-29T02:50:41;0.70;;;0.70;;
17595;SDS011;8916;47.086;15.920;2024-03-29T02:53:08;2.47;;;1.77;;
17595;SDS011;8916;47.086;15.920;2024-03-29T02:55:36;1.25;;;1.00;;
17595;SDS011;8916;47.086;15.920;2024-03-29T02:58:04;2.72;;;1.08;;
17595;SDS011;8916;47.086;15.920;2024-03-29T03:00:33;1.25;;;1.15;;
17595;SDS011;8916;47.086;15.920;2024-03-29T03:03:01;1.50;;;1.20;;
17595;SDS011;8916;47.086;15.920;2024-03-29T03:05:29;1.20;;;1.10;;
17595;SDS011;8916;47.086;15.920;2024-03-29T03:07:56;1.52;;;1.10;;
17595;SDS011;8916;47.086;15.920;2024-03-29T03:10:45;2.20;;;1.02;;
17595;SDS011;8916;47.086;15.920;2024-03-29T03:13:29;2.20;;;1.30;;
17595;SDS011;8916;47.086;15.920;2024-03-29T03:15:58;2.65;;;0.95;;
17595;SDS011;8916;47.086;15.920;2024-03-29T03:18:27;1.08;;;0.80;;
17595;SDS011;8916;47.086;15.920;2024-03-29T03:20:54;3.40;;;0.90;;
17595;SDS011;8916;47.086;15.920;2024-03-29T03:23:24;1.08;;;0.88;;
17595;SDS011;8916;47.086;15.920;2024-03-29T03:25:54;2.97;;;1.45;;
17595;SDS011;8916;47.086;15.920;2024-03-29T03:28:24;1.80;;;1.15;;
17595;SDS011;8916;47.086;15.920;2024-03-29T03:30:51;1.20;;;1.02;;
17595;SDS011;8916;47.086;15.920;2024-03-29T03:33:22;1.05;;;0.93;;
17595;SDS011;8916;47.086;15.920;2024-03-29T03:35:49;2.40;;;0.80;;
17595;SDS011;8916;47.086;15.920;2024-03-29T03:38:18;2.47;;;1.10;;
17595;SDS011;8916;47.086;15.920;2024-03-29T03:40:45;1.73;;;1.00;;
17595;SDS011;8916;47.086;15.920;2024-03-29T03:43:13;1.25;;;0.88;;
17595;SDS011;8916;47.086;15.920;2024-03-29T03:45:40;0.52;;;0.52;;
17595;SDS011;8916;47.086;15.920;2024-03-29T03:48:10;1.85;;;0.90;;
17595;SDS011;8916;47.086;15.920;2024-03-29T03:50:39;2.35;;;1.13;;
17595;SDS011;8916;47.086;15.920;2024-03-29T03:53:07;3.60;;;0.70;;
17595;SDS011;8916;47.086;15.920;2024-03-29T03:55:35;1.98;;;0.93;;
17595;SDS011;8916;47.086;15.920;2024-03-29T03:58:04;1.45;;;1.05;;
17595;SDS011;8916;47.086;15.920;2024-03-29T04:00:31;1.92;;;1.20;;
17595;SDS011;8916;47.086;15.920;2024-03-29T04:03:00;2.45;;;1.67;;
17595;SDS011;8916;47.086;15.920;2024-03-29T04:05:30;3.38;;;2.15;;
17595;SDS011;8916;47.086;15.920;2024-03-29T04:08:00;2.42;;;1.58;;
17595;SDS011;8916;47.086;15.920;2024-03-29T04:10:27;2.45;;;1.73;;
17595;SDS011;8916;47.086;15.920;2024-03-29T04:12:55;2.25;;;1.52;;
17595;SDS011;8916;47.086;15.920;2024-03-29T04:15:22;3.75;;;1.95;;
17595;SDS011;8916;47.086;15.920;2024-03-29T04:17:51;4.13;;;2.33;;
17595;SDS011;8916;47.086;15.920;2024-03-29T04:20:18;2.47;;;1.77;;
17595;SDS011;8916;47.086;15.920;2024-03-29T04:22:46;3.38;;;2.00;;
17595;SDS011;8916;47.086;15.920;2024-03-29T04:25:15;2.95;;;1.88;;
17595;SDS011;8916;47.086;15.920;2024-03-29T04:27:43;4.90;;;2.40;;
17595;SDS011;8916;47.086;15.920;2024-03-29T04:30:11;4.47;;;2.55;;
17595;SDS011;8916;47.086;15.920;2024-03-29T04:32:39;3.53;;;2.10;;
17595;SDS011;8916;47.086;15.920;2024-03-29T04:35:07;6.55;;;2.70;;
17595;SDS011;8916;47.086;15.920;2024-03-29T04:37:36;8.68;;;3.13;;
17595;SDS011;8916;47.086;15.920;2024-03-29T04:40:04;11.93;;;4.03;;
17595;SDS011;8916;47.086;15.920;2024-03-29T04:42:35;17.45;;;3.40;;
17595;SDS011;8916;47.086;15.920;2024-03-29T04:45:04;11.13;;;2.90;;
17595;SDS011;8916;47.086;15.920;2024-03-29T04:47:33;7.68;;;3.10;;
17595;SDS011;8916;47.086;15.920;2024-03-29T04:50:01;6.85;;;3.08;;
17595;SDS011;8916;47.086;15.920;2024-03-29T04:52:30;6.15;;;2.70;;
17595;SDS011;8916;47.086;15.920;2024-03-29T04:54:58;4.88;;;2.72;;
17595;SDS011;8916;47.086;15.920;2024-03-29T04:57:26;4.25;;;2.92;;
17595;SDS011;8916;47.086;15.920;2024-03-29T04:59:56;3.95;;;2.25;;
17595;SDS011;8916;47.086;15.920;2024-03-29T05:02:24;4.72;;;2.30;;
17595;SDS011;8916;47.086;15.920;2024-03-29T05:04:53;3.85;;;2.95;;
17595;SDS011;8916;47.086;15.920;2024-03-29T05:07:23;3.42;;;2.78;;
17595;SDS011;8916;47.086;15.920;2024-03-29T05:09:51;5.13;;;2.80;;
17595;SDS011;8916;47.086;15.920;2024-03-29T05:12:19;5.38;;;3.10;;
17595;SDS011;8916;47.086;15.920;2024-03-29T05:14:48;4.80;;;2.42;;
17595;SDS011;8916;47.086;15.920;2024-03-29T05:17:18;3.65;;;2.15;;
17595;SDS011;8916;47.086;15.920;2024-03-29T05:19:51;3.00;;;1.83;;
17595;SDS011;8916;47.086;15.920;2024-03-29T05:22:20;3.67;;;2.20;;
17595;SDS011;8916;47.086;15.920;2024-03-29T05:24:49;3.97;;;2.15;;
17595;SDS011;8916;47.086;15.920;2024-03-29T05:27:20;5.63;;;2.47;;
17595;SDS011;8916;47.086;15.920;2024-03-29T05:29:48;4.38;;;2.75;;
17595;SDS011;8916;47.086;15.920;2024-03-29T05:32:17;4.10;;;2.63;;
17595;SDS011;8916;47.086;15.920;2024-03-29T05:34:46;4.63;;;2.78;;
17595;SDS011;8916;47.086;15.920;2024-03-29T05:37:14;5.60;;;2.63;;
17595;SDS011;8916;47.086;15.920;2024-03-29T05:39:44;4.15;;;2.85;;
17595;SDS011;8916;47.086;15.920;2024-03-29T05:42:13;5.40;;;2.72;;
17595;SDS011;8916;47.086;15.920;2024-03-29T05:44:41;4.72;;;3.10;;
17595;SDS011;8916;47.086;15.920;2024-03-29T05:47:10;8.13;;;3.35;;
17595;SDS011;8916;47.086;15.920;2024-03-29T05:49:39;7.55;;;3.85;;
17595;SDS011;8916;47.086;15.920;2024-03-29T05:52:08;3.58;;;2.65;;
17595;SDS011;8916;47.086;15.920;2024-03-29T05:54:36;4.05;;;2.72;;
17595;SDS011;8916;47.086;15.920;2024-03-29T05:57:04;5.75;;;3.03;;
17595;SDS011;8916;47.086;15.920;2024-03-29T05:59:33;8.00;;;3.10;;
17595;SDS011;8916;47.086;15.920;2024-03-29T06:02:02;3.97;;;2.42;;
17595;SDS011;8916;47.086;15.920;2024-03-29T06:04:31;3.67;;;2.50;;
17595;SDS011;8916;47.086;15.920;2024-03-29T06:07:01;4.30;;;2.25;;
17595;SDS011;8916;47.086;15.920;2024-03-29T06:09:31;6.20;;;2.72;;
17595;SDS011;8916;47.086;15.920;2024-03-29T06:11:59;4.95;;;2.58;;
17595;SDS011;8916;47.086;15.920;2024-03-29T06:14:28;3.05;;;2.40;;
17595;SDS011;8916;47.086;15.920;2024-03-29T06:17:14;2.70;;;2.03;;
17595;SDS011;8916;47.086;15.920;2024-03-29T06:19:57;4.93;;;2.30;;
17595;SDS011;8916;47.086;15.920;2024-03-29T06:22:30;2.30;;;1.98;;
17595;SDS011;8916;47.086;15.920;2024-03-29T06:24:59;2.85;;;2.10;;
17595;SDS011;8916;47.086;15.920;2024-03-29T06:27:31;4.70;;;2.45;;
17595;SDS011;8916;47.086;15.920;2024-03-29T06:29:59;2.47;;;2.08;;
17595;SDS011;8916;47.086;15.920;2024-03-29T06:32:28;3.33;;;1.92;;
17595;SDS011;8916;47.086;15.920;2024-03-29T06:34:56;5.28;;;2.08;;
17595;SDS011;8916;47.086;15.920;2024-03-29T06:37:25;7.45;;;2.20;;
17595;SDS011;8916;47.086;15.920;2024-03-29T06:39:56;1.70;;;1.60;;
17595;SDS011;8916;47.086;15.920;2024-03-29T06:42:24;3.53;;;2.03;;
17595;SDS011;8916;47.086;15.920;2024-03-29T06:44:52;2.03;;;1.30;;
17595;SDS011;8916;47.086;15.920;2024-03-29T06:47:21;3.10;;;1.50;;
17595;SDS011;8916;47.086;15.920;2024-03-29T06:49:49;3.53;;;1.67;;
17595;SDS011;8916;47.086;15.920;2024-03-29T06:52:18;1.95;;;1.30;;
17595;SDS011;8916;47.086;15.920;2024-03-29T06:54:46;2.45;;;1.60;;
17595;SDS011;8916;47.086;15.920;2024-03-29T06:57:16;2.15;;;1.50;;
17595;SDS011;8916;47.086;15.920;2024-03-29T06:59:49;1.42;;;1.25;;
17595;SDS011;8916;47.086;15.920;2024-03-29T07:02:17;3.25;;;1.30;;
17595;SDS011;8916;47.086;15.920;2024-03-29T07:04:45;1.75;;;1.25;;
17595;SDS011;8916;47.086;15.920;2024-03-29T07:07:14;2.35;;;1.42;;
17595;SDS011;8916;47.086;15.920;2024-03-29T07:09:42;1.13;;;0.75;;
17595;SDS011;8916;47.086;15.920;2024-03-29T07:12:11;1.40;;;1.00;;
17595;SDS011;8916;47.086;15.920;2024-03-29T07:14:40;4.38;;;1.58;;
17595;SDS011;8916;47.086;15.920;2024-03-29T07:17:08;1.35;;;1.02;;
17595;SDS011;8916;47.086;15.920;2024-03-29T07:19:36;1.80;;;1.27;;
17595;SDS011;8916;47.086;15.920;2024-03-29T07:22:04;2.05;;;0.85;;
17595;SDS011;8916;47.086;15.920;2024-03-29T07:24:32;3.97;;;1.42;;
17595;SDS011;8916;47.086;15.920;2024-03-29T07:27:01;1.75;;;1.17;;
17595;SDS011;8916;47.086;15.920;2024-03-29T07:29:29;3.25;;;1.50;;
17595;SDS011;8916;47.086;15.920;2024-03-29T07:32:01;2.38;;;1.30;;
17595;SDS011;8916;47.086;15.920;2024-03-29T07:34:30;2.20;;;1.33;;
17595;SDS011;8916;47.086;15.920;2024-03-29T07:36:58;1.73;;;1.25;;
17595;SDS011;8916;47.086;15.920;2024-03-29T07:39:27;3.90;;;1.48;;
17595;SDS011;8916;47.086;15.920;2024-03-29T07:41:55;1.73;;;1.20;;
17595;SDS011;8916;47.086;15.920;2024-03-29T07:44:24;5.30;;;1.90;;
17595;SDS011;8916;47.086;15.920;2024-03-29T07:46:52;6.95;;;1.67;;
17595;SDS011;8916;47.086;15.920;2024-03-29T07:49:22;5.82;;;1.98;;
17595;SDS011;8916;47.086;15.920;2024-03-29T07:51:50;2.30;;;1.30;;
17595;SDS011;8916;47.086;15.920;2024-03-29T07:54:18;4.75;;;1.52;;
17595;SDS011;8916;47.086;15.920;2024-03-29T07:56:47;3.35;;;1.30;;
17595;SDS011;8916;47.086;15.920;2024-03-29T07:59:15;3.10;;;1.30;;
17595;SDS011;8916;47.086;15.920;2024-03-29T08:01:45;2.33;;;1.42;;
17595;SDS011;8916;47.086;15.920;2024-03-29T08:04:13;3.22;;;1.35;;
17595;SDS011;8916;47.086;15.920;2024-03-29T08:06:43;2.78;;;1.40;;
17595;SDS011;8916;47.086;15.920;2024-03-29T08:09:11;3.80;;;1.20;;
17595;SDS011;8916;47.086;15.920;2024-03-29T08:11:40;2.03;;;1.20;;
17595;SDS011;8916;47.086;15.920;2024-03-29T08:14:08;3.17;;;1.30;;
17595;SDS011;8916;47.086;15.920;2024-03-29T08:16:37;2.17;;;1.15;;
17595;SDS011;8916;47.086;15.920;2024-03-29T08:19:05;1.67;;;1.10;;
17595;SDS011;8916;47.086;15.920;2024-03-29T08:21:34;3.50;;;0.85;;
17595;SDS011;8916;47.086;15.920;2024-03-29T08:24:04;3.83;;;1.40;;
17595;SDS011;8916;47.086;15.920;2024-03-29T08:26:33;4.30;;;1.25;;
17595;SDS011;8916;47.086;15.920;2024-03-29T08:29:01;2.88;;;1.20;;
17595;SDS011;8916;47.086;15.920;2024-03-29T08:31:30;4.60;;;1.67;;
17595;SDS011;8916;47.086;15.920;2024-03-29T08:33:58;2.83;;;1.48;;
17595;SDS011;8916;47.086;15.920;2024-03-29T08:36:28;4.72;;;1.70;;
17595;SDS011;8916;47.086;15.920;2024-03-29T08:38:56;3.17;;;1.35;;
17595;SDS011;8916;47.086;15.920;2024-03-29T08:41:25;1.85;;;1.30;;
17595;SDS011;8916;47.086;15.920;2024-03-29T08:43:54;3.33;;;1.17;;
17595;SDS011;8916;47.086;15.920;2024-03-29T08:46:24;2.13;;;1.23;;
17595;SDS011;8916;47.086;15.920;2024-03-29T08:48:54;3.38;;;1.33;;
17595;SDS011;8916;47.086;15.920;2024-03-29T08:51:22;2.00;;;1.40;;
17595;SDS011;8916;47.086;15.920;2024-03-29T08:53:51;3.22;;;1.55;;
17595;SDS011;8916;47.086;15.920;2024-03-29T08:56:19;2.90;;;1.55;;
17595;SDS011;8916;47.086;15.920;2024-03-29T08:58:49;3.92;;;1.67;;
17595;SDS011;8916;47.086;15.920;2024-03-29T09:01:20;2.65;;;1.40;;
17595;SDS011;8916;47.086;15.920;2024-03-29T09:03:48;5.95;;;1.85;;
17595;SDS011;8916;47.086;15.920;2024-03-29T09:06:16;3.00;;;1.75;;
17595;SDS011;8916;47.086;15.920;2024-03-29T09:08:45;5.00;;;1.65;;
17595;SDS011;8916;47.086;15.920;2024-03-29T09:11:13;3.38;;;1.50;;
17595;SDS011;8916;47.086;15.920;2024-03-29T09:13:41;2.90;;;1.48;;
17595;SDS011;8916;47.086;15.920;2024-03-29T09:16:11;2.83;;;1.90;;
17595;SDS011;8916;47.086;15.920;2024-03-29T09:18:40;6.00;;;1.98;;
17595;SDS011;8916;47.086;15.920;2024-03-29T09:21:08;4.45;;;2.10;;
17595;SDS011;8916;47.086;15.920;2024-03-29T09:23:37;3.03;;;1.70;;
17595;SDS011;8916;47.086;15.920;2024-03-29T09:26:08;2.72;;;1.63;;
17595;SDS011;8916;47.086;15.920;2024-03-29T09:28:38;4.88;;;2.20;;
17595;SDS011;8916;47.086;15.920;2024-03-29T09:31:06;4.15;;;2.03;;
17595;SDS011;8916;47.086;15.920;2024-03-29T09:33:36;8.43;;;1.80;;
17595;SDS011;8916;47.086;15.920;2024-03-29T09:36:05;5.10;;;1.90;;
17595;SDS011;8916;47.086;15.920;2024-03-29T09:38:37;3.90;;;1.80;;
17595;SDS011;8916;47.086;15.920;2024-03-29T09:41:07;4.55;;;2.03;;
17595;SDS011;8916;47.086;15.920;2024-03-29T09:43:41;3.05;;;2.05;;
17595;SDS011;8916;47.086;15.920;2024-03-29T09:46:12;6.30;;;2.15;;
17595;SDS011;8916;47.086;15.920;2024-03-29T09:48:43;6.20;;;2.25;;
17595;SDS011;8916;47.086;15.920;2024-03-29T09:51:13;3.78;;;2.08;;
17595;SDS011;8916;47.086;15.920;2024-03-29T09:53:42;5.82;;;2.05;;
17595;SDS011;8916;47.086;15.920;2024-03-29T09:56:11;3.67;;;1.67;;
17595;SDS011;8916;47.086;15.920;2024-03-29T09:58:39;4.28;;;2.10;;
17595;SDS011;8916;47.086;15.920;2024-03-29T10:01:08;7.47;;;2.42;;
17595;SDS011;8916;47.086;15.920;2024-03-29T10:03:38;4.78;;;1.88;;
17595;SDS011;8916;47.086;15.920;2024-03-29T10:06:10;5.40;;;2.22;;
17595;SDS011;8916;47.086;15.920;2024-03-29T10:08:40;2.67;;;1.40;;
17595;SDS011;8916;47.086;15.920;2024-03-29T10:11:09;5.80;;;1.67;;
17595;SDS011;8916;47.086;15.920;2024-03-29T10:13:37;6.78;;;2.10;;
17595;SDS011;8916;47.086;15.920;2024-03-29T10:16:06;5.70;;;1.63;;
17595;SDS011;8916;47.086;15.920;2024-03-29T10:18:37;4.72;;;1.95;;
17595;SDS011;8916;47.086;15.920;2024-03-29T10:21:11;4.03;;;1.60;;
17595;SDS011;8916;47.086;15.920;2024-03-29T10:23:39;4.93;;;2.00;;
17595;SDS011;8916;47.086;15.920;2024-03-29T10:26:08;4.90;;;1.58;;
17595;SDS011;8916;47.086;15.920;2024-03-29T10:28:39;5.68;;;1.80;;
17595;SDS011;8916;47.086;15.920;2024-03-29T10:31:08;4.35;;;1.73;;
17595;SDS011;8916;47.086;15.920;2024-03-29T10:33:37;4.72;;;1.83;;
17595;SDS011;8916;47.086;15.920;2024-03-29T10:36:06;2.72;;;1.40;;
17595;SDS011;8916;47.086;15.920;2024-03-29T10:38:39;4.05;;;1.70;;
17595;SDS011;8916;47.086;15.920;2024-03-29T10:41:08;7.57;;;1.42;;
17595;SDS011;8916;47.086;15.920;2024-03-29T10:43:37;4.03;;;1.70;;
17595;SDS011;8916;47.086;15.920;2024-03-29T10:46:10;3.03;;;1.40;;
17595;SDS011;8916;47.086;15.920;2024-03-29T10:48:38;7.75;;;1.40;;
17595;SDS011;8916;47.086;15.920;2024-03-29T10:51:08;7.95;;;1.50;;
17595;SDS011;8916;47.086;15.920;2024-03-29T10:53:40;5.32;;;1.70;;
17595;SDS011;8916;47.086;15.920;2024-03-29T10:56:09;4.72;;;1.58;;
17595;SDS011;8916;47.086;15.920;2024-03-29T10:58:39;8.02;;;1.83;;
17595;SDS011;8916;47.086;15.920;2024-03-29T11:01:12;5.38;;;1.55;;
17595;SDS011;8916;47.086;15.920;2024-03-29T11:03:44;5.30;;;1.38;;
17595;SDS011;8916;47.086;15.920;2024-03-29T11:06:17;8.05;;;1.70;;
17595;SDS011;8916;47.086;15.920;2024-03-29T11:08:52;2.35;;;1.40;;
17595;SDS011;8916;47.086;15.920;2024-03-29T11:11:24;4.18;;;1.45;;
17595;SDS011;8916;47.086;15.920;2024-03-29T11:13:58;6.38;;;1.73;;
17595;SDS011;8916;47.086;15.920;2024-03-29T11:16:32;5.45;;;1.27;;
17595;SDS011;8916;47.086;15.920;2024-03-29T11:19:00;4.88;;;1.38;;
17595;SDS011;8916;47.086;15.920;2024-03-29T11:21:32;3.72;;;1.55;;
17595;SDS011;8916;47.086;15.920;2024-03-29T11:24:03;7.88;;;1.55;;
17595;SDS011;8916;47.086;15.920;2024-03-29T11:26:32;4.10;;;1.30;;
17595;SDS011;8916;47.086;15.920;2024-03-29T11:29:00;4.47;;;1.20;;
17595;SDS011;8916;47.086;15.920;2024-03-29T11:31:29;5.90;;;1.65;;
17595;SDS011;8916;47.086;15.920;2024-03-29T11:33:59;4.22;;;1.48;;
17595;SDS011;8916;47.086;15.920;2024-03-29T11:36:28;5.25;;;1.77;;
17595;SDS011;8916;47.086;15.920;2024-03-29T11:38:57;3.92;;;1.20;;
17595;SDS011;8916;47.086;15.920;2024-03-29T11:41:27;7.28;;;1.55;;
17595;SDS011;8916;47.086;15.920;2024-03-29T11:43:56;7.95;;;1.60;;
17595;SDS011;8916;47.086;15.920;2024-03-29T11:46:25;6.90;;;1.55;;
17595;SDS011;8916;47.086;15.920;2024-03-29T11:48:53;2.65;;;0.68;;
17595;SDS011;8916;47.086;15.920;2024-03-29T11:51:22;6.97;;;1.38;;
17595;SDS011;8916;47.086;15.920;2024-03-29T11:53:52;5.53;;;1.95;;
17595;SDS011;8916;47.086;15.920;2024-03-29T11:56:21;3.38;;;1.08;;
17595;SDS011;8916;47.086;15.920;2024-03-29T11:58:51;2.80;;;1.20;;
17595;SDS011;8916;47.086;15.920;2024-03-29T12:01:20;2.60;;;1.17;;
17595;SDS011;8916;47.086;15.920;2024-03-29T12:03:48;7.88;;;1.73;;
17595;SDS011;8916;47.086;15.920;2024-03-29T12:06:17;4.55;;;1.50;;
17595;SDS011;8916;47.086;15.920;2024-03-29T12:08:46;6.50;;;1.30;;
17595;SDS011;8916;47.086;15.920;2024-03-29T12:11:16;3.70;;;1.17;;
17595;SDS011;8916;47.086;15.920;2024-03-29T12:13:44;5.45;;;1.38;;
17595;SDS011;8916;47.086;15.920;2024-03-29T12:16:14;5.57;;;1.17;;
17595;SDS011;8916;47.086;15.920;2024-03-29T12:18:46;3.22;;;1.17;;
17595;SDS011;8916;47.086;15.920;2024-03-29T12:21:15;5.68;;;1.23;;
17595;SDS011;8916;47.086;15.920;2024-03-29T12:23:47;10.00;;;1.38;;
17595;SDS011;8916;47.086;15.920;2024-03-29T12:26:16;4.03;;;1.05;;
17595;SDS011;8916;47.086;15.920;2024-03-29T12:28:49;5.72;;;1.13;;
17595;SDS011;8916;47.086;15.920;2024-03-29T12:31:19;5.90;;;1.25;;
17595;SDS011;8916;47.086;15.920;2024-03-29T12:33:51;5.78;;;1.30;;
17595;SDS011;8916;47.086;15.920;2024-03-29T12:36:22;5.95;;;1.20;;
17595;SDS011;8916;47.086;15.920;2024-03-29T12:38:54;5.95;;;1.20;;
17595;SDS011;8916;47.086;15.920;2024-03-29T12:41:24;5.07;;;1.42;;
17595;SDS011;8916;47.086;15.920;2024-03-29T12:43:53;7.10;;;1.50;;
17595;SDS011;8916;47.086;15.920;2024-03-29T12:46:23;2.65;;;1.08;;
17595;SDS011;8916;47.086;15.920;2024-03-29T12:48:56;4.60;;;1.08;;
17595;SDS011;8916;47.086;15.920;2024-03-29T12:51:26;4.68;;;1.50;;
17595;SDS011;8916;47.086;15.920;2024-03-29T12:53:55;6.45;;;1.27;;
17595;SDS011;8916;47.086;15.920;2024-03-29T12:56:29;5.50;;;1.50;;
17595;SDS011;8916;47.086;15.920;2024-03-29T12:58:58;5.72;;;1.45;;
17595;SDS011;8916;47.086;15.920;2024-03-29T13:01:28;3.90;;;1.30;;
17595;SDS011;8916;47.086;15.920;2024-03-29T13:03:56;7.68;;;1.63;;
17595;SDS011;8916;47.086;15.920;2024-03-29T13:06:24;5.32;;;1.30;;
17595;SDS011;8916;47.086;15.920;2024-03-29T13:08:53;3.28;;;1.10;;
17595;SDS011;8916;47.086;15.920;2024-03-29T13:11:22;5.43;;;1.40;;
17595;SDS011;8916;47.086;15.920;2024-03-29T13:13:51;8.35;;;1.30;;
17595;SDS011;8916;47.086;15.920;2024-03-29T13:16:20;4.85;;;1.75;;
17595;SDS011;8916;47.086;15.920;2024-03-29T13:18:49;5.95;;;1.70;;
17595;SDS011;8916;47.086;15.920;2024-03-29T13:21:17;6.70;;;1.55;;
17595;SDS011;8916;47.086;15.920;2024-03-29T13:23:46;4.13;;;1.55;;
17595;SDS011;8916;47.086;15.920;2024-03-29T13:26:14;9.55;;;1.98;;
17595;SDS011;8916;47.086;15.920;2024-03-29T13:28:42;8.15;;;2.10;;
17595;SDS011;8916;47.086;15.920;2024-03-29T13:31:11;6.53;;;2.15;;
17595;SDS011;8916;47.086;15.920;2024-03-29T13:33:39;6.95;;;1.77;;
17595;SDS011;8916;47.086;15.920;2024-03-29T13:36:09;7.07;;;2.30;;
17595;SDS011;8916;47.086;15.920;2024-03-29T13:38:38;4.22;;;1.40;;
17595;SDS011;8916;47.086;15.920;2024-03-29T13:41:06;4.50;;;1.45;;
17595;SDS011;8916;47.086;15.920;2024-03-29T13:43:37;5.85;;;2.22;;
17595;SDS011;8916;47.086;15.920;2024-03-29T13:46:08;12.07;;;2.50;;
17595;SDS011;8916;47.086;15.920;2024-03-29T13:48:36;6.28;;;1.83;;
17595;SDS011;8916;47.086;15.920;2024-03-29T13:51:06;6.53;;;1.63;;
17595;SDS011;8916;47.086;15.920;2024-03-29T13:53:35;7.22;;;1.98;;
17595;SDS011;8916;47.086;15.920;2024-03-29T13:56:04;8.45;;;2.40;;
17595;SDS011;8916;47.086;15.920;2024-03-29T13:58:33;8.65;;;2.08;;
17595;SDS011;8916;47.086;15.920;2024-03-29T14:01:01;8.18;;;2.10;;
17595;SDS011;8916;47.086;15.920;2024-03-29T14:03:30;8.23;;;1.85;;
17595;SDS011;8916;47.086;15.920;2024-03-29T14:06:00;7.45;;;2.40;;
17595;SDS011;8916;47.086;15.920;2024-03-29T14:08:29;7.80;;;2.10;;
17595;SDS011;8916;47.086;15.920;2024-03-29T14:10:58;5.47;;;2.58;;
17595;SDS011;8916;47.086;15.920;2024-03-29T14:13:27;6.07;;;1.80;;
17595;SDS011;8916;47.086;15.920;2024-03-29T14:15:55;9.77;;;1.80;;
17595;SDS011;8916;47.086;15.920;2024-03-29T14:18:23;7.00;;;1.40;;
17595;SDS011;8916;47.086;15.920;2024-03-29T14:20:52;9.18;;;2.10;;
17595;SDS011;8916;47.086;15.920;2024-03-29T14:23:20;8.27;;;1.70;;
17595;SDS011;8916;47.086;15.920;2024-03-29T14:25:51;6.07;;;2.15;;
17595;SDS011;8916;47.086;15.920;2024-03-29T14:28:20;9.52;;;1.90;;
17595;SDS011;8916;47.086;15.920;2024-03-29T14:30:49;5.25;;;1.67;;
17595;SDS011;8916;47.086;15.920;2024-03-29T14:33:17;4.50;;;1.85;;
17595;SDS011;8916;47.086;15.920;2024-03-29T14:35:46;8.93;;;2.47;;
17595;SDS011;8916;47.086;15.920;2024-03-29T14:38:15;4.85;;;1.35;;
17595;SDS011;8916;47.086;15.920;2024-03-29T14:40:44;7.55;;;2.05;;
17595;SDS011;8916;47.086;15.920;2024-03-29T14:43:12;6.45;;;1.58;;
17595;SDS011;8916;47.086;15.920;2024-03-29T14:45:42;11.63;;;1.77;;
17595;SDS011;8916;47.086;15.920;2024-03-29T14:48:13;8.85;;;2.33;;
17595;SDS011;8916;47.086;15.920;2024-03-29T14:50:42;6.60;;;1.90;;
17595;SDS011;8916;47.086;15.920;2024-03-29T14:53:10;7.55;;;1.77;;
17595;SDS011;8916;47.086;15.920;2024-03-29T14:55:39;9.63;;;1.92;;
17595;SDS011;8916;47.086;15.920;2024-03-29T14:58:07;7.63;;;1.73;;